createdAt,value
2023-05-15T00:04:49.163Z,52.07
2023-05-15T00:09:52.049Z,52.50
2023-05-15T00:14:54.854Z,51.37
2023-05-15T00:19:59.313Z,51.52
2023-05-15T00:25:02.094Z,52.42
2023-05-15T00:30:06.050Z,52.48
2023-05-15T00:35:09.515Z,51.93
2023-05-15T00:40:15.504Z,51.95
2023-05-15T00:45:19.646Z,52.46
2023-05-15T00:50:23.773Z,52.54
2023-05-15T00:55:28.014Z,52.28
2023-05-15T01:00:33.128Z,52.31
2023-05-15T01:05:35.862Z,52.37
2023-05-15T01:10:41.697Z,52.35
2023-05-15T01:15:44.439Z,53.00
2023-05-15T01:21:16.203Z,55.15
2023-05-15T01:26:57.654Z,54.46
2023-05-15T01:32:06.932Z,54.80
2023-05-15T01:37:11.728Z,54.34
2023-05-15T01:42:17.168Z,53.83
2023-05-15T01:47:35.329Z,53.44
2023-05-15T01:52:42.946Z,53.61
2023-05-15T01:57:48.064Z,54.39
2023-05-15T02:02:51.483Z,54.14
2023-05-15T02:07:55.604Z,54.15
2023-05-15T02:12:58.973Z,54.27
2023-05-15T02:18:01.950Z,54.82
2023-05-15T02:23:04.778Z,55.16
2023-05-15T02:28:17.214Z,56.08
2023-05-15T02:33:28.424Z,56.49
2023-05-15T02:38:59.174Z,56.19
2023-05-15T02:44:02.892Z,55.61
2023-05-15T02:49:06.098Z,55.20
2023-05-15T02:54:09.788Z,55.10
2023-05-15T02:59:18.681Z,54.99
2023-05-15T03:04:21.655Z,55.39
2023-05-15T03:09:25.597Z,55.53
2023-05-15T03:14:28.496Z,55.48
2023-05-15T03:19:31.498Z,55.30
2023-05-15T03:24:34.301Z,55.23
2023-05-15T03:29:38.633Z,54.79
2023-05-15T03:34:41.541Z,54.75
2023-05-15T03:39:44.440Z,54.78
2023-05-15T03:44:47.258Z,55.16
2023-05-15T03:49:50.253Z,56.12
2023-05-15T03:54:53.462Z,55.85
2023-05-15T03:59:56.369Z,55.97
2023-05-15T04:04:59.397Z,55.57
2023-05-15T04:10:03.114Z,55.51
2023-05-15T04:15:24.907Z,55.75
2023-05-15T04:20:28.061Z,55.79
2023-05-15T04:25:31.167Z,55.44
2023-05-15T04:30:34.269Z,55.07
2023-05-15T04:35:37.180Z,54.85
2023-05-15T04:40:39.978Z,54.83
2023-05-15T04:45:43.027Z,54.48
2023-05-15T04:50:45.993Z,54.27
2023-05-15T04:55:51.669Z,54.25
2023-05-15T05:00:54.593Z,54.30
2023-05-15T05:05:57.474Z,54.07
2023-05-15T05:11:00.585Z,53.85
2023-05-15T05:16:03.699Z,53.59
2023-05-15T05:21:06.897Z,53.49
2023-05-15T05:26:09.811Z,53.54
2023-05-15T05:31:12.706Z,53.49
2023-05-15T05:36:15.998Z,53.19
2023-05-15T05:41:19.036Z,53.10
2023-05-15T05:46:22.063Z,52.96
2023-05-15T05:51:25.037Z,52.70
2023-05-15T05:56:28.048Z,52.49
2023-05-15T06:01:31.261Z,52.16
2023-05-15T06:06:34.775Z,51.92
2023-05-15T06:11:37.692Z,51.63
2023-05-15T06:16:40.738Z,51.27
2023-05-15T06:21:43.997Z,51.05
2023-05-15T06:26:47.316Z,50.79
2023-05-15T06:31:50.222Z,50.32
2023-05-15T06:36:54.151Z,50.34
2023-05-15T06:42:01.415Z,50.31
2023-05-15T06:47:05.308Z,50.08
2023-05-15T06:52:08.634Z,49.92
2023-05-15T06:57:11.710Z,50.11
2023-05-15T07:02:15.620Z,50.16
2023-05-15T07:13:01.394Z,50.77
2023-05-15T07:18:04.752Z,50.85
2023-05-15T07:23:07.921Z,50.71
2023-05-15T07:28:11.433Z,50.36
2023-05-15T07:33:14.337Z,50.17
2023-05-15T07:38:17.268Z,49.97
2023-05-15T07:43:20.349Z,50.04
2023-05-15T07:48:23.571Z,50.01
2023-05-15T07:53:26.673Z,49.66
2023-05-15T07:58:29.787Z,49.53
2023-05-15T08:03:34.255Z,49.59
2023-05-15T08:08:37.339Z,49.73
2023-05-15T08:13:40.340Z,49.92
2023-05-15T08:18:43.174Z,50.08
2023-05-15T08:23:46.264Z,50.18
2023-05-15T08:28:49.350Z,50.34
2023-05-15T08:33:52.263Z,50.96
2023-05-15T08:38:55.161Z,51.65
2023-05-15T08:43:58.825Z,51.56
2023-05-15T08:49:11.717Z,52.53
2023-05-15T08:54:17.224Z,52.54
2023-05-15T08:59:20.297Z,52.44
2023-05-15T09:04:23.216Z,52.80
2023-05-15T09:09:28.032Z,53.07
2023-05-15T09:14:31.174Z,53.09
2023-05-15T09:19:39.262Z,52.93
2023-05-15T09:24:42.101Z,52.68
2023-05-15T09:29:45.613Z,52.22
2023-05-15T09:34:48.516Z,51.76
2023-05-15T09:39:51.547Z,50.19
2023-05-15T09:44:54.430Z,49.05
2023-05-15T09:49:57.438Z,47.08
2023-05-15T09:55:00.345Z,45.96
2023-05-15T10:00:10.722Z,47.48
2023-05-15T10:05:13.637Z,49.07
2023-05-15T10:10:16.641Z,49.80
2023-05-15T10:15:23.228Z,51.09
2023-05-15T10:20:28.367Z,52.34
2023-05-15T10:25:58.620Z,53.90
2023-05-15T10:31:03.487Z,56.07
2023-05-15T10:36:08.691Z,57.82
2023-05-15T10:41:17.632Z,59.65
2023-05-15T10:46:22.251Z,61.96
2023-05-15T10:51:27.969Z,58.67
2023-05-15T10:56:32.788Z,59.90
2023-05-15T11:01:38.191Z,62.00
2023-05-15T11:06:46.435Z,60.80
2023-05-15T11:11:52.704Z,62.19
2023-05-15T11:16:56.042Z,63.55
2023-05-15T11:22:09.065Z,63.71
2023-05-15T11:27:14.155Z,62.84
2023-05-15T11:32:52.427Z,62.92
2023-05-15T11:38:02.134Z,62.80
2023-05-15T11:43:08.393Z,61.70
2023-05-15T11:48:13.826Z,61.86
2023-05-15T11:53:18.304Z,61.59
2023-05-15T11:58:22.860Z,61.05
2023-05-15T12:03:38.510Z,60.97
2023-05-15T12:08:45.427Z,60.90
2023-05-15T12:13:52.081Z,62.27
2023-05-15T12:18:58.079Z,63.21
2023-05-15T12:24:08.101Z,63.25
2023-05-15T12:29:11.827Z,62.83
2023-05-15T12:34:14.772Z,62.41
2023-05-15T12:39:17.631Z,62.56
2023-05-15T12:44:21.195Z,62.91
2023-05-15T12:49:24.258Z,63.28
2023-05-15T12:54:27.072Z,64.75
2023-05-15T12:59:30.276Z,65.69
2023-05-15T13:04:33.694Z,65.92
2023-05-15T13:09:36.996Z,66.35
2023-05-15T13:14:42.250Z,66.64
2023-05-15T13:19:45.182Z,66.90
2023-05-15T13:24:48.058Z,67.12
2023-05-15T13:29:51.170Z,66.78
2023-05-15T13:34:55.113Z,67.08
2023-05-15T13:39:58.416Z,67.71
2023-05-15T13:45:01.429Z,67.98
2023-05-15T13:50:05.102Z,68.07
2023-05-15T13:55:12.146Z,69.11
2023-05-15T14:00:16.329Z,69.69
2023-05-15T14:05:19.290Z,69.31
2023-05-15T14:10:24.105Z,69.60
2023-05-15T14:15:27.122Z,70.21
2023-05-15T14:20:30.055Z,70.33
2023-05-15T14:25:32.964Z,71.02
2023-05-15T14:30:36.164Z,70.60
2023-05-15T14:35:39.068Z,70.34
2023-05-15T14:40:43.230Z,70.56
2023-05-15T14:45:46.128Z,70.01
2023-05-15T14:50:49.316Z,69.73
2023-05-15T14:55:52.526Z,70.58
2023-05-15T15:00:55.432Z,70.47
2023-05-15T15:05:58.437Z,70.00
2023-05-15T15:11:02.254Z,70.10
2023-05-15T15:16:06.136Z,69.61
2023-05-15T15:21:09.506Z,68.45
2023-05-15T15:26:12.515Z,68.83
2023-05-15T15:31:16.205Z,68.60
2023-05-15T15:36:19.349Z,67.73
2023-05-15T15:41:23.759Z,69.01
2023-05-15T15:46:27.710Z,68.76
2023-05-15T15:51:30.728Z,69.13
2023-05-15T15:56:33.624Z,68.80
2023-05-15T16:01:36.912Z,68.28
2023-05-15T16:06:40.355Z,68.28
2023-05-15T16:11:43.260Z,67.99
2023-05-15T16:16:46.699Z,68.12
2023-05-15T16:21:49.891Z,68.84
2023-05-15T16:26:53.024Z,68.77
2023-05-15T16:31:58.048Z,68.96
2023-05-15T16:37:01.057Z,69.67
2023-05-15T16:42:04.070Z,70.44
2023-05-15T16:47:07.520Z,70.21
2023-05-15T16:52:10.817Z,69.46
2023-05-15T16:57:14.011Z,70.08
2023-05-15T17:02:16.865Z,69.21
2023-05-15T17:07:20.325Z,69.08
2023-05-15T17:12:23.634Z,69.67
2023-05-15T17:17:26.898Z,70.51
2023-05-15T17:22:30.165Z,70.07
2023-05-15T17:27:35.631Z,68.83
2023-05-15T17:32:40.119Z,68.47
2023-05-15T17:37:43.188Z,68.96
2023-05-15T17:42:46.089Z,69.09
2023-05-15T17:47:49.358Z,68.82
2023-05-15T17:52:52.306Z,69.08
2023-05-15T17:57:55.206Z,68.50
2023-05-15T18:02:58.276Z,68.42
2023-05-15T18:08:03.705Z,69.23
2023-05-15T18:13:06.691Z,69.68
2023-05-15T18:18:09.637Z,69.49
2023-05-15T18:23:12.593Z,70.23
2023-05-15T18:28:15.496Z,69.32
2023-05-15T18:33:18.505Z,69.55
2023-05-15T18:38:21.413Z,69.33
2023-05-15T18:43:24.429Z,68.78
2023-05-15T18:48:27.546Z,68.39
2023-05-15T18:53:30.434Z,67.77
2023-05-15T18:58:33.541Z,67.93
2023-05-15T19:03:36.722Z,68.44
2023-05-15T19:08:39.656Z,68.11
2023-05-15T19:13:42.555Z,67.85
2023-05-15T19:18:45.507Z,67.42
2023-05-15T19:23:50.886Z,67.17
2023-05-15T19:28:53.726Z,67.18
2023-05-15T19:33:57.354Z,68.62
2023-05-15T19:39:00.268Z,69.27
2023-05-15T19:44:04.502Z,68.13
2023-05-15T19:49:08.875Z,69.13
2023-05-15T19:54:11.828Z,69.05
2023-05-15T19:59:15.037Z,67.98
2023-05-15T20:04:18.057Z,69.02
2023-05-15T20:09:20.950Z,68.88
2023-05-15T20:14:23.750Z,68.70
2023-05-15T20:19:27.703Z,68.39
2023-05-15T20:24:32.441Z,67.68
2023-05-15T20:29:36.561Z,66.60
2023-05-15T20:34:42.591Z,65.40
2023-05-15T20:39:46.207Z,65.66
2023-05-15T20:44:50.604Z,67.39
2023-05-15T20:49:53.504Z,68.22
2023-05-15T20:54:56.408Z,69.21
2023-05-15T20:59:59.309Z,69.47
2023-05-15T21:05:02.931Z,70.05
2023-05-15T21:10:06.865Z,69.14
2023-05-15T21:15:10.267Z,68.39
2023-05-15T21:20:13.200Z,68.64
2023-05-15T21:25:19.190Z,68.81
2023-05-15T21:30:22.178Z,68.87
2023-05-15T21:35:25.709Z,68.84
2023-05-15T21:40:28.910Z,69.67
2023-05-15T21:45:31.935Z,69.94
2023-05-15T21:50:35.323Z,68.79
2023-05-15T21:55:38.177Z,67.97
2023-05-15T22:00:41.307Z,67.49
2023-05-15T22:05:45.530Z,67.18
2023-05-15T22:10:49.598Z,66.58
2023-05-15T22:15:52.696Z,66.69
2023-05-15T22:20:55.819Z,66.97
2023-05-15T22:25:58.738Z,66.71
2023-05-15T22:31:01.723Z,66.66
2023-05-15T22:36:06.326Z,66.42
2023-05-15T22:41:09.814Z,66.18
2023-05-15T22:46:12.837Z,66.11
2023-05-15T22:51:16.420Z,66.28
2023-05-15T22:56:19.336Z,66.11
2023-05-15T23:01:22.270Z,67.10
2023-05-15T23:06:25.948Z,67.14
2023-05-15T23:11:28.882Z,67.18
2023-05-15T23:16:31.963Z,67.14
2023-05-15T23:21:35.068Z,67.34
2023-05-15T23:26:38.361Z,66.44
2023-05-15T23:31:43.132Z,66.03
2023-05-15T23:36:46.235Z,66.57
2023-05-15T23:41:49.092Z,67.13
2023-05-15T23:46:51.994Z,67.05
2023-05-15T23:51:54.952Z,67.15
2023-05-15T23:56:57.862Z,67.03
